Terminal Aerodrome Forecast
Issued by NWS

Home | Current Version | Previous Version | Text Only | Print | Product List | Glossary On
Versions: 1 2 3 4 5 6 7 8 9 10 11 12 13 14 15 16 17 18 19 20 21
000
FTUS43 KFGF 220710 AAA
TAFBJI
TAF AMD
KBJI 220710Z 2207/2306 VRB03KT 4SM BR OVC050
      TEMPO 2207/2210 1SM BR SCT003
     FM221000 VRB03KT 5SM BR BKN003
     FM221700 35005KT 4SM -RA OVC008
     FM222200 35010KT P6SM OVC008
     FM230300 34009KT P6SM BKN008=

USA.gov is the U.S. government's official web portal to all federal, state and local government web resources and services.